sensor_id;sensor_type;location;lat;lon;timestamp;temperature;humidity
33023;DHT22;19390;51.460;5.710;2023-07-13T00:02:23;14.60;99.90
33023;DHT22;19390;51.460;5.710;2023-07-13T00:04:48;14.40;99.90
33023;DHT22;19390;51.460;5.710;2023-07-13T00:07:14;14.30;99.90
33023;DHT22;19390;51.460;5.710;2023-07-13T00:09:40;14.30;99.90
33023;DHT22;19390;51.460;5.710;2023-07-13T00:14:50;14.30;99.90
33023;DHT22;19390;51.460;5.710;2023-07-13T00:17:15;14.40;99.90
33023;DHT22;19390;51.460;5.710;2023-07-13T00:19:41;14.50;99.90
33023;DHT22;19390;51.460;5.710;2023-07-13T00:22:07;14.50;99.90
33023;DHT22;19390;51.460;5.710;2023-07-13T00:24:32;14.60;99.90
33023;DHT22;19390;51.460;5.710;2023-07-13T00:26:58;14.60;99.90
33023;DHT22;19390;51.460;5.710;2023-07-13T00:29:26;14.60;99.90
33023;DHT22;19390;51.460;5.710;2023-07-13T00:31:51;14.60;99.90
33023;DHT22;19390;51.460;5.710;2023-07-13T00:34:17;14.70;99.90
33023;DHT22;19390;51.460;5.710;2023-07-13T00:36:43;14.60;99.90
33023;DHT22;19390;51.460;5.710;2023-07-13T00:39:08;14.50;99.90
33023;DHT22;19390;51.460;5.710;2023-07-13T00:41:34;14.50;99.90
33023;DHT22;19390;51.460;5.710;2023-07-13T00:44:02;14.40;99.90
33023;DHT22;19390;51.460;5.710;2023-07-13T00:46:36;14.40;99.90
33023;DHT22;19390;51.460;5.710;2023-07-13T00:49:17;14.30;99.90
33023;DHT22;19390;51.460;5.710;2023-07-13T00:51:50;14.30;99.90
33023;DHT22;19390;51.460;5.710;2023-07-13T00:54:23;14.20;99.90
33023;DHT22;19390;51.460;5.710;2023-07-13T00:56:52;14.10;99.90
33023;DHT22;19390;51.460;5.710;2023-07-13T00:59:18;14.10;99.90
33023;DHT22;19390;51.460;5.710;2023-07-13T01:01:45;14.00;99.90
33023;DHT22;19390;51.460;5.710;2023-07-13T01:04:11;14.00;99.90
33023;DHT22;19390;51.460;5.710;2023-07-13T01:06:39;14.20;99.90
33023;DHT22;19390;51.460;5.710;2023-07-13T01:09:07;14.20;99.90
33023;DHT22;19390;51.460;5.710;2023-07-13T01:11:33;14.30;99.90
33023;DHT22;19390;51.460;5.710;2023-07-13T01:14:00;14.40;99.90
33023;DHT22;19390;51.460;5.710;2023-07-13T01:16:31;14.40;99.90
33023;DHT22;19390;51.460;5.710;2023-07-13T01:18:58;14.50;99.90
33023;DHT22;19390;51.460;5.710;2023-07-13T01:21:25;14.40;99.90
33023;DHT22;19390;51.460;5.710;2023-07-13T01:23:51;14.30;99.90
33023;DHT22;19390;51.460;5.710;2023-07-13T01:26:17;14.20;99.90
33023;DHT22;19390;51.460;5.710;2023-07-13T01:28:43;14.10;99.90
33023;DHT22;19390;51.460;5.710;2023-07-13T01:31:09;14.10;99.90
33023;DHT22;19390;51.460;5.710;2023-07-13T01:33:38;14.00;99.90
33023;DHT22;19390;51.460;5.710;2023-07-13T01:36:08;13.90;99.90
33023;DHT22;19390;51.460;5.710;2023-07-13T01:38:35;14.00;99.90
33023;DHT22;19390;51.460;5.710;2023-07-13T01:41:01;14.00;99.90
33023;DHT22;19390;51.460;5.710;2023-07-13T01:43:27;14.00;99.90
33023;DHT22;19390;51.460;5.710;2023-07-13T01:45:52;14.00;99.90
33023;DHT22;19390;51.460;5.710;2023-07-13T01:48:18;14.10;99.90
33023;DHT22;19390;51.460;5.710;2023-07-13T01:50:45;13.90;99.90
33023;DHT22;19390;51.460;5.710;2023-07-13T01:53:11;14.10;99.90
33023;DHT22;19390;51.460;5.710;2023-07-13T01:55:37;14.10;99.90
33023;DHT22;19390;51.460;5.710;2023-07-13T01:58:03;14.10;99.90
33023;DHT22;19390;51.460;5.710;2023-07-13T02:00:29;14.10;99.90
33023;DHT22;19390;51.460;5.710;2023-07-13T02:02:54;14.20;99.90
33023;DHT22;19390;51.460;5.710;2023-07-13T02:05:20;14.10;99.90
33023;DHT22;19390;51.460;5.710;2023-07-13T02:07:46;14.10;99.90
33023;DHT22;19390;51.460;5.710;2023-07-13T02:10:12;14.00;99.90
33023;DHT22;19390;51.460;5.710;2023-07-13T02:12:38;14.10;99.90
33023;DHT22;19390;51.460;5.710;2023-07-13T02:15:05;14.00;99.90
33023;DHT22;19390;51.460;5.710;2023-07-13T02:17:31;13.90;99.90
33023;DHT22;19390;51.460;5.710;2023-07-13T02:19:57;13.80;99.90
33023;DHT22;19390;51.460;5.710;2023-07-13T02:22:23;13.80;99.90
33023;DHT22;19390;51.460;5.710;2023-07-13T02:24:49;13.80;99.90
33023;DHT22;19390;51.460;5.710;2023-07-13T02:27:15;13.80;99.90
33023;DHT22;19390;51.460;5.710;2023-07-13T02:29:41;13.80;99.90
33023;DHT22;19390;51.460;5.710;2023-07-13T02:32:07;13.90;99.90
33023;DHT22;19390;51.460;5.710;2023-07-13T02:34:33;13.90;99.90
33023;DHT22;19390;51.460;5.710;2023-07-13T02:36:59;13.80;99.90
33023;DHT22;19390;51.460;5.710;2023-07-13T02:39:24;13.90;99.90
33023;DHT22;19390;51.460;5.710;2023-07-13T02:41:50;13.90;99.90
33023;DHT22;19390;51.460;5.710;2023-07-13T02:44:16;13.90;99.90
33023;DHT22;19390;51.460;5.710;2023-07-13T02:46:42;13.90;99.90
33023;DHT22;19390;51.460;5.710;2023-07-13T02:49:08;13.90;99.90
33023;DHT22;19390;51.460;5.710;2023-07-13T02:51:33;13.70;99.90
33023;DHT22;19390;51.460;5.710;2023-07-13T02:54:00;13.80;99.90
33023;DHT22;19390;51.460;5.710;2023-07-13T02:56:28;13.80;99.90
33023;DHT22;19390;51.460;5.710;2023-07-13T02:58:54;13.80;99.90
33023;DHT22;19390;51.460;5.710;2023-07-13T03:01:21;13.80;99.90
33023;DHT22;19390;51.460;5.710;2023-07-13T03:03:48;13.70;99.90
33023;DHT22;19390;51.460;5.710;2023-07-13T03:06:14;13.80;99.90
33023;DHT22;19390;51.460;5.710;2023-07-13T03:08:40;13.70;99.90
33023;DHT22;19390;51.460;5.710;2023-07-13T03:11:13;13.90;99.90
33023;DHT22;19390;51.460;5.710;2023-07-13T03:13:40;13.80;99.90
33023;DHT22;19390;51.460;5.710;2023-07-13T03:16:06;13.80;99.90
33023;DHT22;19390;51.460;5.710;2023-07-13T03:18:32;13.80;99.90
33023;DHT22;19390;51.460;5.710;2023-07-13T03:20:58;13.70;99.90
33023;DHT22;19390;51.460;5.710;2023-07-13T03:23:24;13.60;99.90
33023;DHT22;19390;51.460;5.710;2023-07-13T03:25:50;13.60;99.90
33023;DHT22;19390;51.460;5.710;2023-07-13T03:28:16;13.60;99.90
33023;DHT22;19390;51.460;5.710;2023-07-13T03:30:41;13.70;99.90
33023;DHT22;19390;51.460;5.710;2023-07-13T03:33:07;13.60;99.90
33023;DHT22;19390;51.460;5.710;2023-07-13T03:35:34;13.70;99.90
33023;DHT22;19390;51.460;5.710;2023-07-13T03:38:00;13.70;99.90
33023;DHT22;19390;51.460;5.710;2023-07-13T03:40:27;13.60;99.90
33023;DHT22;19390;51.460;5.710;2023-07-13T03:42:53;13.60;99.90
33023;DHT22;19390;51.460;5.710;2023-07-13T03:45:19;13.60;99.90
33023;DHT22;19390;51.460;5.710;2023-07-13T03:47:45;13.60;99.90
33023;DHT22;19390;51.460;5.710;2023-07-13T03:50:10;13.60;99.90
33023;DHT22;19390;51.460;5.710;2023-07-13T03:52:36;13.60;99.90
33023;DHT22;19390;51.460;5.710;2023-07-13T03:55:02;13.60;99.90
33023;DHT22;19390;51.460;5.710;2023-07-13T03:57:28;13.50;99.90
33023;DHT22;19390;51.460;5.710;2023-07-13T03:59:53;13.60;99.90
33023;DHT22;19390;51.460;5.710;2023-07-13T04:02:19;13.60;99.90
33023;DHT22;19390;51.460;5.710;2023-07-13T04:04:45;13.70;99.90
33023;DHT22;19390;51.460;5.710;2023-07-13T04:07:11;13.60;99.90
33023;DHT22;19390;51.460;5.710;2023-07-13T04:09:37;13.60;99.90
33023;DHT22;19390;51.460;5.710;2023-07-13T04:12:04;13.60;99.90
33023;DHT22;19390;51.460;5.710;2023-07-13T04:14:30;13.70;99.90
33023;DHT22;19390;51.460;5.710;2023-07-13T04:16:55;13.80;99.90
33023;DHT22;19390;51.460;5.710;2023-07-13T04:19:21;13.80;99.90
33023;DHT22;19390;51.460;5.710;2023-07-13T04:21:47;13.90;99.90
33023;DHT22;19390;51.460;5.710;2023-07-13T04:24:13;13.90;99.90
33023;DHT22;19390;51.460;5.710;2023-07-13T04:26:38;14.00;99.90
33023;DHT22;19390;51.460;5.710;2023-07-13T04:29:05;14.00;99.90
33023;DHT22;19390;51.460;5.710;2023-07-13T04:31:31;14.10;99.90
33023;DHT22;19390;51.460;5.710;2023-07-13T04:33:57;14.10;99.90
33023;DHT22;19390;51.460;5.710;2023-07-13T04:36:23;14.20;99.90
33023;DHT22;19390;51.460;5.710;2023-07-13T04:38:52;14.20;99.90
33023;DHT22;19390;51.460;5.710;2023-07-13T04:41:20;14.30;99.90
33023;DHT22;19390;51.460;5.710;2023-07-13T04:43:46;14.50;99.90
33023;DHT22;19390;51.460;5.710;2023-07-13T04:46:13;14.60;99.90
33023;DHT22;19390;51.460;5.710;2023-07-13T04:48:39;14.60;99.90
33023;DHT22;19390;51.460;5.710;2023-07-13T04:51:05;14.60;99.90
33023;DHT22;19390;51.460;5.710;2023-07-13T04:53:31;14.70;99.90
33023;DHT22;19390;51.460;5.710;2023-07-13T04:55:57;14.90;99.90
33023;DHT22;19390;51.460;5.710;2023-07-13T04:58:23;14.80;99.90
33023;DHT22;19390;51.460;5.710;2023-07-13T05:01:01;15.20;99.90
33023;DHT22;19390;51.460;5.710;2023-07-13T05:03:27;15.00;99.90
33023;DHT22;19390;51.460;5.710;2023-07-13T05:05:57;15.00;99.90
33023;DHT22;19390;51.460;5.710;2023-07-13T05:08:23;15.10;99.90
33023;DHT22;19390;51.460;5.710;2023-07-13T05:10:50;15.20;99.90
33023;DHT22;19390;51.460;5.710;2023-07-13T05:13:16;15.20;99.90
33023;DHT22;19390;51.460;5.710;2023-07-13T05:15:41;15.20;99.90
33023;DHT22;19390;51.460;5.710;2023-07-13T05:18:07;15.30;99.90
33023;DHT22;19390;51.460;5.710;2023-07-13T05:20:33;15.40;99.90
33023;DHT22;19390;51.460;5.710;2023-07-13T05:22:58;15.60;99.90
33023;DHT22;19390;51.460;5.710;2023-07-13T05:25:24;16.40;99.90
33023;DHT22;19390;51.460;5.710;2023-07-13T05:27:49;16.20;99.90
33023;DHT22;19390;51.460;5.710;2023-07-13T05:30:15;16.30;99.90
33023;DHT22;19390;51.460;5.710;2023-07-13T05:32:41;16.40;99.90
33023;DHT22;19390;51.460;5.710;2023-07-13T05:35:07;16.30;99.90
33023;DHT22;19390;51.460;5.710;2023-07-13T05:37:33;16.20;99.90
33023;DHT22;19390;51.460;5.710;2023-07-13T05:39:59;16.40;99.90
33023;DHT22;19390;51.460;5.710;2023-07-13T05:42:24;16.40;99.90
33023;DHT22;19390;51.460;5.710;2023-07-13T05:44:50;16.50;99.90
33023;DHT22;19390;51.460;5.710;2023-07-13T05:47:16;16.90;99.90
33023;DHT22;19390;51.460;5.710;2023-07-13T05:49:41;17.10;99.90
33023;DHT22;19390;51.460;5.710;2023-07-13T05:52:07;16.90;99.90
33023;DHT22;19390;51.460;5.710;2023-07-13T05:54:33;17.00;99.90
33023;DHT22;19390;51.460;5.710;2023-07-13T05:56:58;16.90;99.90
33023;DHT22;19390;51.460;5.710;2023-07-13T05:59:24;16.80;99.90
33023;DHT22;19390;51.460;5.710;2023-07-13T06:01:51;16.70;99.90
33023;DHT22;19390;51.460;5.710;2023-07-13T06:04:18;16.80;99.90
33023;DHT22;19390;51.460;5.710;2023-07-13T06:06:44;16.90;99.90
33023;DHT22;19390;51.460;5.710;2023-07-13T06:09:10;16.70;99.90
33023;DHT22;19390;51.460;5.710;2023-07-13T06:11:35;16.60;99.90
33023;DHT22;19390;51.460;5.710;2023-07-13T06:14:01;16.80;99.90
33023;DHT22;19390;51.460;5.710;2023-07-13T06:16:27;16.70;99.90
33023;DHT22;19390;51.460;5.710;2023-07-13T06:18:52;16.50;99.90
33023;DHT22;19390;51.460;5.710;2023-07-13T06:21:20;16.50;99.90
33023;DHT22;19390;51.460;5.710;2023-07-13T06:23:48;16.60;99.90
33023;DHT22;19390;51.460;5.710;2023-07-13T06:26:14;16.80;99.90
33023;DHT22;19390;51.460;5.710;2023-07-13T06:28:40;16.90;99.90
33023;DHT22;19390;51.460;5.710;2023-07-13T06:31:07;16.90;99.90
33023;DHT22;19390;51.460;5.710;2023-07-13T06:33:34;16.80;99.90
33023;DHT22;19390;51.460;5.710;2023-07-13T06:36:00;17.00;99.90
33023;DHT22;19390;51.460;5.710;2023-07-13T06:38:26;16.90;99.90
33023;DHT22;19390;51.460;5.710;2023-07-13T06:40:52;16.90;99.90
33023;DHT22;19390;51.460;5.710;2023-07-13T06:43:17;16.90;99.90
33023;DHT22;19390;51.460;5.710;2023-07-13T06:45:48;17.00;99.90
33023;DHT22;19390;51.460;5.710;2023-07-13T06:48:15;17.00;99.90
33023;DHT22;19390;51.460;5.710;2023-07-13T06:50:42;16.90;99.90
33023;DHT22;19390;51.460;5.710;2023-07-13T06:53:08;17.10;99.90
33023;DHT22;19390;51.460;5.710;2023-07-13T06:55:34;17.40;99.90
33023;DHT22;19390;51.460;5.710;2023-07-13T06:58:00;17.70;99.90
33023;DHT22;19390;51.460;5.710;2023-07-13T07:00:25;17.60;99.90
33023;DHT22;19390;51.460;5.710;2023-07-13T07:02:51;17.40;99.90
33023;DHT22;19390;51.460;5.710;2023-07-13T07:05:17;17.30;99.90
33023;DHT22;19390;51.460;5.710;2023-07-13T07:07:42;17.10;99.90
33023;DHT22;19390;51.460;5.710;2023-07-13T07:10:08;17.40;99.90
33023;DHT22;19390;51.460;5.710;2023-07-13T07:12:34;17.40;99.90
33023;DHT22;19390;51.460;5.710;2023-07-13T07:15:00;17.70;99.90
33023;DHT22;19390;51.460;5.710;2023-07-13T07:17:26;17.50;99.90
33023;DHT22;19390;51.460;5.710;2023-07-13T07:19:52;17.70;99.90
33023;DHT22;19390;51.460;5.710;2023-07-13T07:22:20;17.80;99.90
33023;DHT22;19390;51.460;5.710;2023-07-13T07:24:45;17.80;99.90
33023;DHT22;19390;51.460;5.710;2023-07-13T07:27:11;17.90;99.90
33023;DHT22;19390;51.460;5.710;2023-07-13T07:29:37;18.00;99.90
33023;DHT22;19390;51.460;5.710;2023-07-13T07:32:03;18.00;99.90
33023;DHT22;19390;51.460;5.710;2023-07-13T07:34:29;18.20;99.90
33023;DHT22;19390;51.460;5.710;2023-07-13T07:36:56;17.90;99.90
33023;DHT22;19390;51.460;5.710;2023-07-13T07:39:22;18.30;99.90
33023;DHT22;19390;51.460;5.710;2023-07-13T07:41:48;18.10;99.90
33023;DHT22;19390;51.460;5.710;2023-07-13T07:44:13;18.00;99.90
33023;DHT22;19390;51.460;5.710;2023-07-13T07:46:39;18.20;99.90
33023;DHT22;19390;51.460;5.710;2023-07-13T07:49:06;18.30;99.90
33023;DHT22;19390;51.460;5.710;2023-07-13T07:51:32;18.60;99.90
33023;DHT22;19390;51.460;5.710;2023-07-13T07:53:57;18.70;99.90
33023;DHT22;19390;51.460;5.710;2023-07-13T07:56:23;18.80;99.90
33023;DHT22;19390;51.460;5.710;2023-07-13T07:58:48;18.50;99.90
33023;DHT22;19390;51.460;5.710;2023-07-13T08:01:14;18.50;99.90
33023;DHT22;19390;51.460;5.710;2023-07-13T08:03:41;18.90;99.90
33023;DHT22;19390;51.460;5.710;2023-07-13T08:06:07;19.80;99.90
33023;DHT22;19390;51.460;5.710;2023-07-13T08:08:34;19.70;99.90
33023;DHT22;19390;51.460;5.710;2023-07-13T08:11:04;20.90;99.90
33023;DHT22;19390;51.460;5.710;2023-07-13T08:13:29;23.40;99.90
33023;DHT22;19390;51.460;5.710;2023-07-13T08:15:55;21.90;99.90
33023;DHT22;19390;51.460;5.710;2023-07-13T08:18:21;22.30;99.90
33023;DHT22;19390;51.460;5.710;2023-07-13T08:20:46;23.10;99.90
33023;DHT22;19390;51.460;5.710;2023-07-13T08:23:12;25.00;99.90
33023;DHT22;19390;51.460;5.710;2023-07-13T08:25:38;25.30;99.90
33023;DHT22;19390;51.460;5.710;2023-07-13T08:28:04;25.70;99.90
33023;DHT22;19390;51.460;5.710;2023-07-13T08:30:29;23.20;99.90
33023;DHT22;19390;51.460;5.710;2023-07-13T08:32:55;23.10;99.90
33023;DHT22;19390;51.460;5.710;2023-07-13T08:35:21;22.60;99.90
33023;DHT22;19390;51.460;5.710;2023-07-13T08:37:46;21.90;99.90
33023;DHT22;19390;51.460;5.710;2023-07-13T08:40:12;21.80;99.90
33023;DHT22;19390;51.460;5.710;2023-07-13T08:42:54;21.80;99.90
33023;DHT22;19390;51.460;5.710;2023-07-13T08:45:41;21.50;99.90
33023;DHT22;19390;51.460;5.710;2023-07-13T08:48:11;23.10;99.90
33023;DHT22;19390;51.460;5.710;2023-07-13T08:50:52;22.20;99.90
33023;DHT22;19390;51.460;5.710;2023-07-13T08:53:21;25.00;99.90
33023;DHT22;19390;51.460;5.710;2023-07-13T08:55:54;25.90;99.90
33023;DHT22;19390;51.460;5.710;2023-07-13T08:58:22;26.90;99.90
33023;DHT22;19390;51.460;5.710;2023-07-13T09:01:40;27.60;99.90
33023;DHT22;19390;51.460;5.710;2023-07-13T09:04:19;26.30;99.90
33023;DHT22;19390;51.460;5.710;2023-07-13T09:09:41;28.60;99.90
33023;DHT22;19390;51.460;5.710;2023-07-13T09:12:37;25.40;99.90
33023;DHT22;19390;51.460;5.710;2023-07-13T09:15:24;28.30;99.90
33023;DHT22;19390;51.460;5.710;2023-07-13T09:17:52;27.40;99.90
33023;DHT22;19390;51.460;5.710;2023-07-13T09:20:28;26.70;99.90
33023;DHT22;19390;51.460;5.710;2023-07-13T09:22:55;24.70;99.90
33023;DHT22;19390;51.460;5.710;2023-07-13T09:25:33;28.40;99.90
33023;DHT22;19390;51.460;5.710;2023-07-13T09:28:19;23.60;99.90
33023;DHT22;19390;51.460;5.710;2023-07-13T09:31:20;24.70;99.90
33023;DHT22;19390;51.460;5.710;2023-07-13T09:33:47;23.80;99.90
33023;DHT22;19390;51.460;5.710;2023-07-13T09:36:27;22.80;99.90
33023;DHT22;19390;51.460;5.710;2023-07-13T09:42:16;22.00;99.90
33023;DHT22;19390;51.460;5.710;2023-07-13T09:44:59;26.40;99.90
33023;DHT22;19390;51.460;5.710;2023-07-13T09:47:30;29.20;99.90
33023;DHT22;19390;51.460;5.710;2023-07-13T09:50:06;29.90;99.90
33023;DHT22;19390;51.460;5.710;2023-07-13T09:52:48;27.90;99.90
33023;DHT22;19390;51.460;5.710;2023-07-13T09:55:32;28.40;99.90
33023;DHT22;19390;51.460;5.710;2023-07-13T09:58:20;25.10;99.90
33023;DHT22;19390;51.460;5.710;2023-07-13T10:01:00;27.20;99.90
33023;DHT22;19390;51.460;5.710;2023-07-13T10:03:30;28.30;99.90
33023;DHT22;19390;51.460;5.710;2023-07-13T10:06:18;29.50;99.90
33023;DHT22;19390;51.460;5.710;2023-07-13T10:08:45;29.80;99.90
33023;DHT22;19390;51.460;5.710;2023-07-13T10:11:22;30.30;99.90
33023;DHT22;19390;51.460;5.710;2023-07-13T10:13:52;30.40;99.90
33023;DHT22;19390;51.460;5.710;2023-07-13T10:16:19;28.70;99.90
33023;DHT22;19390;51.460;5.710;2023-07-13T10:19:24;26.70;99.90
33023;DHT22;19390;51.460;5.710;2023-07-13T10:22:00;27.30;99.90
33023;DHT22;19390;51.460;5.710;2023-07-13T10:24:32;29.30;99.90
33023;DHT22;19390;51.460;5.710;2023-07-13T10:27:18;30.50;99.90
33023;DHT22;19390;51.460;5.710;2023-07-13T10:29:59;30.30;99.90
33023;DHT22;19390;51.460;5.710;2023-07-13T10:32:26;30.90;99.90
33023;DHT22;19390;51.460;5.710;2023-07-13T10:34:52;28.30;99.90
33023;DHT22;19390;51.460;5.710;2023-07-13T10:37:26;30.90;99.90
33023;DHT22;19390;51.460;5.710;2023-07-13T10:39:55;32.60;99.90
33023;DHT22;19390;51.460;5.710;2023-07-13T10:42:39;31.70;99.90
33023;DHT22;19390;51.460;5.710;2023-07-13T10:45:19;30.00;99.90
33023;DHT22;19390;51.460;5.710;2023-07-13T10:47:46;29.00;99.90
33023;DHT22;19390;51.460;5.710;2023-07-13T10:50:19;28.20;99.90
33023;DHT22;19390;51.460;5.710;2023-07-13T10:52:51;29.20;99.90
33023;DHT22;19390;51.460;5.710;2023-07-13T10:58:21;29.50;99.90
33023;DHT22;19390;51.460;5.710;2023-07-13T11:01:03;31.00;99.90
33023;DHT22;19390;51.460;5.710;2023-07-13T11:03:37;30.40;99.90
33023;DHT22;19390;51.460;5.710;2023-07-13T11:06:34;26.30;99.90
33023;DHT22;19390;51.460;5.710;2023-07-13T11:09:33;25.10;99.90
33023;DHT22;19390;51.460;5.710;2023-07-13T11:12:00;24.60;99.90
33023;DHT22;19390;51.460;5.710;2023-07-13T11:14:30;24.80;99.90
33023;DHT22;19390;51.460;5.710;2023-07-13T11:16:56;23.50;99.90
33023;DHT22;19390;51.460;5.710;2023-07-13T11:22:16;20.00;99.90
33023;DHT22;19390;51.460;5.710;2023-07-13T11:27:40;21.90;99.90
33023;DHT22;19390;51.460;5.710;2023-07-13T11:30:22;27.00;99.90
33023;DHT22;19390;51.460;5.710;2023-07-13T11:35:33;25.80;99.90
33023;DHT22;19390;51.460;5.710;2023-07-13T11:38:01;27.70;99.90
33023;DHT22;19390;51.460;5.710;2023-07-13T11:40:28;27.90;99.90
33023;DHT22;19390;51.460;5.710;2023-07-13T11:43:01;28.40;99.90
33023;DHT22;19390;51.460;5.710;2023-07-13T11:45:27;26.00;99.90
33023;DHT22;19390;51.460;5.710;2023-07-13T11:47:56;24.40;99.90
33023;DHT22;19390;51.460;5.710;2023-07-13T11:50:25;22.80;99.90
33023;DHT22;19390;51.460;5.710;2023-07-13T11:52:53;22.30;99.90
33023;DHT22;19390;51.460;5.710;2023-07-13T11:55:22;24.30;99.90
33023;DHT22;19390;51.460;5.710;2023-07-13T11:57:53;27.10;99.90
33023;DHT22;19390;51.460;5.710;2023-07-13T12:00:25;28.00;99.90
33023;DHT22;19390;51.460;5.710;2023-07-13T12:02:54;28.70;99.90
33023;DHT22;19390;51.460;5.710;2023-07-13T12:05:21;27.60;99.90
33023;DHT22;19390;51.460;5.710;2023-07-13T12:07:49;25.80;99.90
33023;DHT22;19390;51.460;5.710;2023-07-13T12:10:25;24.00;99.90
33023;DHT22;19390;51.460;5.710;2023-07-13T12:13:02;23.30;99.90
33023;DHT22;19390;51.460;5.710;2023-07-13T12:18:12;24.20;99.90
33023;DHT22;19390;51.460;5.710;2023-07-13T12:20:38;23.40;99.90
33023;DHT22;19390;51.460;5.710;2023-07-13T12:23:42;23.10;99.90
33023;DHT22;19390;51.460;5.710;2023-07-13T12:26:08;22.80;99.90
33023;DHT22;19390;51.460;5.710;2023-07-13T12:28:46;22.80;99.90
33023;DHT22;19390;51.460;5.710;2023-07-13T12:34:00;23.30;99.90
33023;DHT22;19390;51.460;5.710;2023-07-13T12:36:30;23.20;99.90
33023;DHT22;19390;51.460;5.710;2023-07-13T12:39:02;22.70;99.90
33023;DHT22;19390;51.460;5.710;2023-07-13T12:41:29;22.20;99.90
33023;DHT22;19390;51.460;5.710;2023-07-13T12:43:55;22.30;99.90
33023;DHT22;19390;51.460;5.710;2023-07-13T12:46:23;22.60;99.90
33023;DHT22;19390;51.460;5.710;2023-07-13T12:48:54;23.80;99.90
33023;DHT22;19390;51.460;5.710;2023-07-13T12:51:25;24.90;99.90
33023;DHT22;19390;51.460;5.710;2023-07-13T12:54:06;24.20;99.90
33023;DHT22;19390;51.460;5.710;2023-07-13T12:56:34;24.10;99.90
33023;DHT22;19390;51.460;5.710;2023-07-13T12:59:03;23.70;99.90
33023;DHT22;19390;51.460;5.710;2023-07-13T13:01:32;23.60;99.90
33023;DHT22;19390;51.460;5.710;2023-07-13T13:04:01;24.20;99.90
33023;DHT22;19390;51.460;5.710;2023-07-13T13:06:32;26.10;99.90
33023;DHT22;19390;51.460;5.710;2023-07-13T13:08:59;26.20;99.90
33023;DHT22;19390;51.460;5.710;2023-07-13T13:11:26;25.20;99.90
33023;DHT22;19390;51.460;5.710;2023-07-13T13:13:52;24.50;99.90
33023;DHT22;19390;51.460;5.710;2023-07-13T13:16:22;24.30;99.90
33023;DHT22;19390;51.460;5.710;2023-07-13T13:18:51;23.70;99.90
33023;DHT22;19390;51.460;5.710;2023-07-13T13:21:17;23.50;99.90
33023;DHT22;19390;51.460;5.710;2023-07-13T13:23:43;23.50;99.90
33023;DHT22;19390;51.460;5.710;2023-07-13T13:26:14;22.60;99.90
33023;DHT22;19390;51.460;5.710;2023-07-13T13:28:41;22.00;99.90
33023;DHT22;19390;51.460;5.710;2023-07-13T13:31:08;21.70;99.90
33023;DHT22;19390;51.460;5.710;2023-07-13T13:33:38;21.70;99.90
33023;DHT22;19390;51.460;5.710;2023-07-13T13:36:17;21.30;99.90
33023;DHT22;19390;51.460;5.710;2023-07-13T13:38:43;20.90;99.90
33023;DHT22;19390;51.460;5.710;2023-07-13T13:41:11;20.60;99.90
33023;DHT22;19390;51.460;5.710;2023-07-13T13:43:39;20.40;99.90
33023;DHT22;19390;51.460;5.710;2023-07-13T13:46:13;20.20;99.90
33023;DHT22;19390;51.460;5.710;2023-07-13T13:48:40;20.00;99.90
33023;DHT22;19390;51.460;5.710;2023-07-13T13:51:14;19.80;99.90
33023;DHT22;19390;51.460;5.710;2023-07-13T13:53:40;19.80;99.90
33023;DHT22;19390;51.460;5.710;2023-07-13T13:56:05;20.00;99.90
33023;DHT22;19390;51.460;5.710;2023-07-13T13:58:31;20.20;99.90
33023;DHT22;19390;51.460;5.710;2023-07-13T14:00:57;20.10;99.90
33023;DHT22;19390;51.460;5.710;2023-07-13T14:03:23;20.10;99.90
33023;DHT22;19390;51.460;5.710;2023-07-13T14:05:49;20.40;99.90
33023;DHT22;19390;51.460;5.710;2023-07-13T14:08:17;20.60;99.90
33023;DHT22;19390;51.460;5.710;2023-07-13T14:10:45;20.70;99.90
33023;DHT22;19390;51.460;5.710;2023-07-13T14:13:20;20.80;99.90
33023;DHT22;19390;51.460;5.710;2023-07-13T14:15:46;21.00;99.90
33023;DHT22;19390;51.460;5.710;2023-07-13T14:18:13;21.00;99.90
33023;DHT22;19390;51.460;5.710;2023-07-13T14:20:44;21.30;99.90
33023;DHT22;19390;51.460;5.710;2023-07-13T14:23:10;21.20;99.90
33023;DHT22;19390;51.460;5.710;2023-07-13T14:25:44;21.00;99.90
33023;DHT22;19390;51.460;5.710;2023-07-13T14:28:21;20.70;99.90
33023;DHT22;19390;51.460;5.710;2023-07-13T14:30:48;20.70;99.90
33023;DHT22;19390;51.460;5.710;2023-07-13T14:33:14;20.70;99.90
33023;DHT22;19390;51.460;5.710;2023-07-13T14:35:40;20.50;99.90
33023;DHT22;19390;51.460;5.710;2023-07-13T14:38:14;20.20;99.90
33023;DHT22;19390;51.460;5.710;2023-07-13T14:40:41;20.20;99.90
33023;DHT22;19390;51.460;5.710;2023-07-13T14:43:10;20.10;99.90
33023;DHT22;19390;51.460;5.710;2023-07-13T14:45:42;20.00;99.90
33023;DHT22;19390;51.460;5.710;2023-07-13T14:48:21;20.10;99.90
33023;DHT22;19390;51.460;5.710;2023-07-13T14:50:49;20.50;99.90
33023;DHT22;19390;51.460;5.710;2023-07-13T14:53:16;20.60;99.90
33023;DHT22;19390;51.460;5.710;2023-07-13T14:55:41;21.10;99.90
33023;DHT22;19390;51.460;5.710;2023-07-13T14:58:08;21.30;99.90
33023;DHT22;19390;51.460;5.710;2023-07-13T15:00:33;21.20;99.90
33023;DHT22;19390;51.460;5.710;2023-07-13T15:03:00;20.80;99.90
33023;DHT22;19390;51.460;5.710;2023-07-13T15:05:29;20.90;99.90
33023;DHT22;19390;51.460;5.710;2023-07-13T15:07:57;20.70;99.90
33023;DHT22;19390;51.460;5.710;2023-07-13T15:10:29;20.80;99.90
33023;DHT22;19390;51.460;5.710;2023-07-13T15:12:59;21.00;99.90
33023;DHT22;19390;51.460;5.710;2023-07-13T15:15:30;20.90;99.90
33023;DHT22;19390;51.460;5.710;2023-07-13T15:17:58;21.00;99.90
33023;DHT22;19390;51.460;5.710;2023-07-13T15:20:29;20.90;99.90
33023;DHT22;19390;51.460;5.710;2023-07-13T15:22:56;21.40;99.90
33023;DHT22;19390;51.460;5.710;2023-07-13T15:25:25;21.40;99.90
33023;DHT22;19390;51.460;5.710;2023-07-13T15:27:53;22.00;99.90
33023;DHT22;19390;51.460;5.710;2023-07-13T15:30:19;22.00;99.90
33023;DHT22;19390;51.460;5.710;2023-07-13T15:32:45;21.90;99.90
33023;DHT22;19390;51.460;5.710;2023-07-13T15:35:20;21.90;99.90
33023;DHT22;19390;51.460;5.710;2023-07-13T15:37:47;22.50;99.90
33023;DHT22;19390;51.460;5.710;2023-07-13T15:40:14;22.20;99.90
33023;DHT22;19390;51.460;5.710;2023-07-13T15:42:44;21.80;99.90
33023;DHT22;19390;51.460;5.710;2023-07-13T15:45:24;21.90;99.90
33023;DHT22;19390;51.460;5.710;2023-07-13T15:47:53;22.20;99.90
33023;DHT22;19390;51.460;5.710;2023-07-13T15:50:22;22.40;99.90
33023;DHT22;19390;51.460;5.710;2023-07-13T15:52:52;22.00;99.90
33023;DHT22;19390;51.460;5.710;2023-07-13T15:55:19;21.70;99.90
33023;DHT22;19390;51.460;5.710;2023-07-13T15:57:51;21.70;99.90
33023;DHT22;19390;51.460;5.710;2023-07-13T16:00:21;22.00;99.90
33023;DHT22;19390;51.460;5.710;2023-07-13T16:02:48;22.00;99.90
33023;DHT22;19390;51.460;5.710;2023-07-13T16:05:14;21.90;99.90
33023;DHT22;19390;51.460;5.710;2023-07-13T16:07:45;21.90;99.90